createdAt,value
2018-09-13T00:02:20.951Z,52.71
2018-09-13T00:04:49.387Z,53.70
2018-09-13T00:07:17.839Z,52.85
2018-09-13T00:09:46.284Z,52.79
2018-09-13T00:12:14.722Z,53.60
2018-09-13T00:14:43.118Z,52.80
2018-09-13T00:17:11.550Z,53.86
2018-09-13T00:19:40.030Z,52.98
2018-09-13T00:22:08.478Z,53.22
2018-09-13T00:24:36.937Z,53.32
2018-09-13T00:27:05.349Z,53.82
2018-09-13T00:29:33.793Z,54.40
2018-09-13T00:32:03.049Z,54.46
2018-09-13T00:34:31.504Z,54.53
2018-09-13T00:37:00.006Z,54.64
2018-09-13T00:39:28.418Z,54.65
2018-09-13T00:41:56.854Z,54.57
2018-09-13T00:44:25.285Z,55.18
2018-09-13T00:46:53.747Z,55.52
2018-09-13T00:49:22.174Z,55.99
2018-09-13T00:51:51.147Z,55.86
2018-09-13T00:54:19.575Z,56.02
2018-09-13T00:56:47.970Z,56.08
2018-09-13T00:59:16.410Z,56.03
2018-09-13T01:01:44.843Z,55.18
2018-09-13T01:04:13.290Z,55.52
2018-09-13T01:06:41.730Z,55.01
2018-09-13T01:09:10.855Z,54.79
2018-09-13T01:11:39.294Z,55.07
2018-09-13T01:14:07.762Z,55.07
2018-09-13T01:16:36.178Z,54.83
2018-09-13T01:19:04.930Z,54.61
2018-09-13T01:21:33.421Z,54.85
2018-09-13T01:24:02.004Z,54.67
2018-09-13T01:26:30.415Z,53.91
2018-09-13T01:28:58.863Z,54.39
2018-09-13T01:31:27.270Z,53.71
2018-09-13T01:33:55.708Z,53.08
2018-09-13T01:36:24.098Z,53.13
2018-09-13T01:38:52.609Z,53.49
2018-09-13T01:41:21.026Z,53.54
2018-09-13T01:43:49.460Z,53.12
2018-09-13T01:46:17.914Z,53.77
2018-09-13T01:48:46.330Z,53.56
2018-09-13T01:51:14.776Z,53.66
2018-09-13T01:53:43.237Z,53.51
2018-09-13T01:56:11.731Z,53.57
2018-09-13T01:58:40.137Z,53.05
2018-09-13T02:01:08.590Z,53.84
2018-09-13T02:03:37.018Z,53.97
2018-09-13T02:06:05.478Z,53.38
2018-09-13T02:08:33.917Z,53.70
2018-09-13T02:11:02.945Z,54.01
2018-09-13T02:13:31.380Z,54.90
2018-09-13T02:15:59.833Z,54.63
2018-09-13T02:18:28.234Z,54.98
2018-09-13T02:20:56.679Z,54.34
2018-09-13T02:23:25.085Z,54.89
2018-09-13T02:25:53.553Z,54.93
2018-09-13T02:28:21.970Z,55.16
2018-09-13T02:30:50.616Z,55.03
2018-09-13T02:33:19.043Z,55.26
2018-09-13T02:35:47.511Z,55.32
2018-09-13T02:38:15.946Z,54.99
2018-09-13T02:40:44.434Z,54.99
2018-09-13T02:43:12.880Z,54.79
2018-09-13T02:45:41.354Z,55.51
2018-09-13T02:48:09.826Z,54.72
2018-09-13T02:50:38.263Z,55.05
2018-09-13T02:53:07.026Z,55.32
2018-09-13T02:55:35.442Z,55.97
2018-09-13T02:58:03.885Z,56.17
2018-09-13T03:00:32.308Z,56.97
2018-09-13T03:03:00.753Z,56.82
2018-09-13T03:05:29.194Z,56.82
2018-09-13T03:07:57.642Z,56.70
2018-09-13T03:10:26.111Z,56.07
2018-09-13T03:12:54.633Z,56.62
2018-09-13T03:15:23.074Z,55.69
2018-09-13T03:17:51.525Z,56.04
2018-09-13T03:20:20.262Z,56.79
2018-09-13T03:22:48.716Z,56.74
2018-09-13T03:25:17.146Z,57.87
2018-09-13T03:27:45.598Z,57.64
2018-09-13T03:30:14.557Z,57.82
2018-09-13T03:32:43.556Z,57.86
2018-09-13T03:35:11.985Z,58.40
2018-09-13T03:37:40.399Z,58.16
2018-09-13T03:40:16.927Z,57.79
2018-09-13T03:42:45.881Z,58.10
2018-09-13T03:45:14.702Z,57.58
2018-09-13T03:47:43.476Z,57.67
2018-09-13T03:53:16.241Z,57.53
2018-09-13T03:55:45.015Z,57.65
2018-09-13T03:58:13.742Z,57.54
2018-09-13T04:00:42.519Z,57.46
2018-09-13T04:03:11.360Z,57.25
2018-09-13T04:05:40.139Z,57.58
2018-09-13T04:08:09.028Z,57.75
2018-09-13T04:10:37.881Z,58.19
2018-09-13T04:13:06.590Z,58.21
2018-09-13T04:15:35.251Z,58.05
2018-09-13T04:18:03.653Z,58.58
2018-09-13T04:20:32.065Z,58.18
2018-09-13T04:23:00.634Z,58.27
2018-09-13T04:25:29.026Z,58.48
2018-09-13T04:27:57.468Z,58.60
2018-09-13T04:30:25.893Z,58.41
2018-09-13T04:32:54.357Z,58.62
2018-09-13T04:35:22.785Z,58.45
2018-09-13T04:37:51.253Z,58.75
2018-09-13T04:40:19.664Z,59.44
2018-09-13T04:42:48.125Z,59.05
2018-09-13T04:45:16.551Z,59.33
2018-09-13T04:47:44.983Z,59.13
2018-09-13T04:50:13.423Z,59.49
2018-09-13T04:52:41.869Z,59.62
2018-09-13T04:55:10.289Z,59.50
2018-09-13T04:57:38.761Z,59.56
2018-09-13T05:03:10.833Z,59.21
2018-09-13T05:05:39.294Z,58.79
2018-09-13T05:08:07.718Z,59.70
2018-09-13T05:10:36.141Z,58.42
2018-09-13T05:13:04.593Z,58.87
2018-09-13T05:15:33.021Z,58.76
2018-09-13T05:18:01.759Z,59.18
2018-09-13T05:20:30.190Z,58.87
2018-09-13T05:22:58.786Z,58.32
2018-09-13T05:25:27.205Z,58.83
2018-09-13T05:27:55.602Z,58.46
2018-09-13T05:30:24.048Z,58.74
2018-09-13T05:32:52.465Z,58.27
2018-09-13T05:35:20.898Z,57.68
2018-09-13T05:37:49.273Z,57.86
2018-09-13T05:40:17.730Z,57.14
2018-09-13T05:42:46.162Z,57.29
2018-09-13T05:45:14.584Z,57.97
2018-09-13T05:47:42.988Z,57.29
2018-09-13T05:50:11.467Z,57.39
2018-09-13T05:52:39.884Z,57.77
2018-09-13T05:55:08.483Z,57.05
2018-09-13T05:57:36.881Z,56.44
2018-09-13T06:00:05.811Z,56.34
2018-09-13T06:02:34.214Z,56.39
2018-09-13T06:05:03.305Z,56.76
2018-09-13T06:07:31.678Z,56.47
2018-09-13T06:10:00.221Z,56.49
2018-09-13T06:12:28.637Z,56.65
2018-09-13T06:14:57.041Z,56.03
2018-09-13T06:17:25.416Z,55.82
2018-09-13T06:19:53.897Z,56.18
2018-09-13T06:22:22.301Z,55.77
2018-09-13T06:24:50.685Z,55.48
2018-09-13T06:27:19.086Z,55.92
2018-09-13T06:29:47.454Z,55.63
2018-09-13T06:32:15.869Z,55.95
2018-09-13T06:34:44.253Z,55.28
2018-09-13T06:37:12.659Z,55.11
2018-09-13T06:39:41.044Z,53.70
2018-09-13T06:42:09.482Z,54.54
2018-09-13T06:44:37.868Z,53.88
2018-09-13T06:47:06.516Z,53.81
2018-09-13T06:49:34.897Z,53.40
2018-09-13T06:52:03.598Z,53.68
2018-09-13T06:54:31.981Z,54.20
2018-09-13T06:57:00.387Z,53.53
2018-09-13T06:59:28.761Z,54.01
2018-09-13T07:01:57.189Z,53.10
2018-09-13T07:04:25.577Z,53.49
2018-09-13T07:06:53.999Z,53.51
2018-09-13T07:09:22.442Z,53.82
2018-09-13T07:11:50.886Z,54.15
2018-09-13T07:14:19.257Z,55.15
2018-09-13T07:16:47.686Z,55.15
2018-09-13T07:19:16.094Z,54.27
2018-09-13T07:21:44.470Z,55.64
2018-09-13T07:24:12.902Z,55.83
2018-09-13T07:26:41.593Z,55.69
2018-09-13T07:29:10.042Z,56.54
2018-09-13T07:31:38.469Z,56.88
2018-09-13T07:34:07.562Z,56.70
2018-09-13T07:36:36.016Z,56.12
2018-09-13T07:39:06.806Z,56.02
2018-09-13T07:41:35.177Z,56.65
2018-09-13T07:44:03.619Z,56.17
2018-09-13T07:46:32.004Z,55.74
2018-09-13T07:49:00.460Z,56.05
2018-09-13T07:51:28.810Z,55.73
2018-09-13T07:53:57.902Z,55.37
2018-09-13T07:56:26.415Z,54.91
2018-09-13T07:58:54.817Z,54.88
2018-09-13T08:01:23.186Z,55.65
2018-09-13T08:03:51.662Z,55.79
2018-09-13T08:06:20.043Z,55.87
2018-09-13T08:08:48.526Z,56.43
2018-09-13T08:11:16.933Z,55.75
2018-09-13T08:13:45.310Z,56.41
2018-09-13T08:16:13.741Z,56.24
2018-09-13T08:18:42.113Z,56.21
2018-09-13T08:21:10.603Z,55.86
2018-09-13T08:23:38.985Z,56.01
2018-09-13T08:26:07.466Z,55.64
2018-09-13T08:28:35.857Z,55.28
2018-09-13T08:31:04.370Z,56.04
2018-09-13T08:33:32.752Z,55.83
2018-09-13T08:36:02.040Z,55.25
2018-09-13T08:38:30.458Z,55.47
2018-09-13T08:40:58.917Z,55.16
2018-09-13T08:43:27.351Z,55.15
2018-09-13T08:45:55.778Z,55.30
2018-09-13T08:48:24.165Z,55.22
2018-09-13T08:50:52.633Z,54.19
2018-09-13T08:53:21.005Z,54.20
2018-09-13T08:55:49.405Z,53.17
2018-09-13T08:58:17.790Z,52.71
2018-09-13T09:00:46.234Z,52.73
2018-09-13T09:03:14.605Z,52.28
2018-09-13T09:05:42.993Z,53.11
2018-09-13T09:08:11.462Z,52.69
2018-09-13T09:10:40.391Z,51.65
2018-09-13T09:13:09.173Z,52.11
2018-09-13T09:15:37.585Z,52.51
2018-09-13T09:18:06.449Z,50.86
2018-09-13T09:20:34.912Z,51.38
2018-09-13T09:23:03.668Z,51.09
2018-09-13T09:25:32.093Z,51.18
2018-09-13T09:28:06.849Z,51.85
2018-09-13T09:30:35.417Z,51.67
2018-09-13T09:33:03.837Z,51.49
2018-09-13T09:35:32.272Z,50.86
2018-09-13T09:38:00.696Z,49.76
2018-09-13T09:40:29.109Z,50.10
2018-09-13T09:42:57.536Z,49.29
2018-09-13T09:45:25.918Z,48.92
2018-09-13T09:47:54.384Z,48.96
2018-09-13T09:50:22.790Z,48.92
2018-09-13T09:52:51.171Z,49.21
2018-09-13T09:55:22.364Z,49.31
2018-09-13T09:57:50.951Z,48.79
2018-09-13T10:00:23.478Z,48.99
2018-09-13T10:02:51.902Z,48.66
2018-09-13T10:05:20.265Z,49.01
2018-09-13T10:07:48.665Z,48.51
2018-09-13T10:10:17.153Z,48.71
2018-09-13T10:12:45.570Z,48.75
2018-09-13T10:15:19.418Z,48.94
2018-09-13T10:17:52.907Z,47.62
2018-09-13T10:20:26.477Z,48.20
2018-09-13T10:23:00.098Z,48.21
2018-09-13T10:25:33.640Z,47.82
2018-09-13T10:28:07.145Z,48.07
2018-09-13T10:30:40.954Z,47.78
2018-09-13T10:33:14.587Z,47.98
2018-09-13T10:35:48.354Z,47.09
2018-09-13T10:38:21.994Z,47.35
2018-09-13T10:40:55.758Z,48.13
2018-09-13T10:43:29.489Z,48.82
2018-09-13T10:46:02.991Z,47.71
2018-09-13T10:48:32.661Z,48.11
2018-09-13T10:51:11.166Z,49.20
2018-09-13T10:53:44.042Z,48.97
2018-09-13T10:56:12.529Z,48.78
2018-09-13T10:58:41.270Z,49.43
2018-09-13T11:01:09.694Z,48.93
2018-09-13T11:03:38.078Z,47.73
2018-09-13T11:06:06.553Z,48.24
2018-09-13T11:08:34.933Z,48.81
2018-09-13T11:11:04.443Z,49.04
2018-09-13T11:14:06.669Z,48.35
2018-09-13T11:16:35.070Z,48.42
2018-09-13T11:19:03.474Z,48.39
2018-09-13T11:21:31.890Z,48.53
2018-09-13T11:24:00.270Z,47.22
2018-09-13T11:26:28.714Z,46.87
2018-09-13T11:28:57.152Z,46.12
2018-09-13T11:31:25.538Z,46.21
2018-09-13T11:33:53.946Z,47.70
2018-09-13T11:36:22.425Z,47.69
2018-09-13T11:38:50.869Z,49.30
2018-09-13T11:41:19.594Z,49.31
2018-09-13T11:43:48.017Z,49.35
2018-09-13T11:46:16.485Z,48.45
2018-09-13T11:48:44.901Z,48.17
2018-09-13T11:51:13.274Z,47.87
2018-09-13T11:53:41.680Z,48.04
2018-09-13T11:56:10.082Z,47.86
2018-09-13T11:58:38.548Z,47.02
2018-09-13T12:01:06.961Z,47.88
2018-09-13T12:03:35.385Z,46.95
2018-09-13T12:06:03.769Z,47.68
2018-09-13T12:08:32.189Z,48.39
2018-09-13T12:11:00.609Z,47.51
2018-09-13T12:13:29.082Z,47.71
2018-09-13T12:15:57.493Z,48.63
2018-09-13T12:18:25.892Z,47.13
2018-09-13T12:20:54.301Z,47.65
2018-09-13T12:23:22.672Z,46.54
2018-09-13T12:25:51.102Z,46.48
2018-09-13T12:28:19.493Z,46.34
2018-09-13T12:30:47.897Z,47.29
2018-09-13T12:33:16.466Z,45.77
2018-09-13T12:35:44.881Z,46.30
2018-09-13T12:38:13.306Z,45.71
2018-09-13T12:40:41.716Z,46.84
2018-09-13T12:43:10.114Z,45.95
2018-09-13T12:45:38.525Z,46.99
2018-09-13T12:48:07.158Z,47.08
2018-09-13T12:50:35.569Z,46.43
2018-09-13T12:53:04.835Z,46.95
2018-09-13T12:55:38.539Z,46.61
2018-09-13T12:58:06.945Z,45.93
2018-09-13T13:00:35.382Z,46.67
2018-09-13T13:03:03.769Z,46.34
2018-09-13T13:05:32.426Z,45.73
2018-09-13T13:08:00.809Z,45.54
2018-09-13T13:10:29.218Z,45.57
2018-09-13T13:12:57.645Z,45.63
2018-09-13T13:15:26.053Z,44.53
2018-09-13T13:17:54.465Z,44.50
2018-09-13T13:20:22.899Z,43.55
2018-09-13T13:22:51.337Z,43.90
2018-09-13T13:25:19.845Z,43.21
2018-09-13T13:27:48.379Z,43.79
2018-09-13T13:30:16.843Z,42.22
2018-09-13T13:32:45.286Z,43.56
2018-09-13T13:35:13.730Z,42.61
2018-09-13T13:37:42.174Z,43.01
2018-09-13T13:40:10.614Z,43.23
2018-09-13T13:42:39.126Z,42.53
2018-09-13T13:45:07.548Z,42.50
2018-09-13T13:47:36.039Z,42.80
2018-09-13T13:50:04.485Z,42.61
2018-09-13T13:52:32.877Z,42.75
2018-09-13T13:55:01.298Z,42.20
2018-09-13T13:57:29.746Z,41.98
2018-09-13T13:59:58.242Z,42.03
2018-09-13T14:02:27.409Z,40.05
2018-09-13T14:04:55.850Z,41.36
2018-09-13T14:07:24.278Z,41.56
2018-09-13T14:09:52.919Z,41.76
2018-09-13T14:12:21.157Z,41.70
2018-09-13T14:14:49.639Z,40.43
2018-09-13T14:17:18.041Z,40.24
2018-09-13T14:19:46.462Z,40.36
2018-09-13T14:22:14.862Z,39.01
2018-09-13T14:24:43.298Z,39.20
2018-09-13T14:27:11.680Z,39.75
2018-09-13T14:29:40.099Z,39.14
2018-09-13T14:32:08.569Z,40.10
2018-09-13T14:34:36.982Z,40.35
2018-09-13T14:37:05.413Z,41.91
2018-09-13T14:39:33.841Z,41.01
2018-09-13T14:42:03.058Z,41.33
2018-09-13T14:44:31.473Z,41.65
2018-09-13T14:46:59.907Z,41.12
2018-09-13T14:49:28.325Z,41.77
2018-09-13T14:51:56.735Z,42.15
2018-09-13T14:54:25.130Z,42.43
2018-09-13T14:56:53.586Z,42.56
2018-09-13T14:59:21.965Z,42.02
2018-09-13T15:01:50.382Z,41.92
2018-09-13T15:04:18.761Z,40.52
2018-09-13T15:06:47.192Z,40.91
2018-09-13T15:09:15.614Z,40.45
2018-09-13T15:11:44.057Z,41.20
2018-09-13T15:14:12.441Z,41.41
2018-09-13T15:16:40.857Z,41.85
2018-09-13T15:19:09.228Z,42.60
2018-09-13T15:21:37.632Z,43.31
2018-09-13T15:24:06.017Z,44.01
2018-09-13T15:26:34.434Z,43.43
2018-09-13T15:29:02.971Z,44.56
2018-09-13T15:31:31.391Z,43.95
2018-09-13T15:33:59.774Z,45.49
2018-09-13T15:36:28.152Z,45.74
2018-09-13T15:38:56.574Z,46.53
2018-09-13T15:41:24.957Z,47.30
2018-09-13T15:43:53.916Z,47.71
2018-09-13T15:46:22.290Z,47.99
2018-09-13T15:48:50.698Z,48.72
2018-09-13T15:51:19.093Z,49.23
2018-09-13T15:53:47.517Z,49.35
2018-09-13T15:56:15.930Z,49.46
2018-09-13T15:58:44.382Z,49.64
2018-09-13T16:01:12.786Z,49.80
2018-09-13T16:03:41.189Z,49.12
2018-09-13T16:06:09.553Z,50.01
2018-09-13T16:08:37.989Z,50.05
2018-09-13T16:11:06.474Z,49.66
2018-09-13T16:13:34.895Z,50.72
2018-09-13T16:16:03.457Z,50.98
2018-09-13T16:18:31.993Z,51.05
2018-09-13T16:21:00.446Z,51.10
2018-09-13T16:23:28.814Z,51.86
2018-09-13T16:25:57.198Z,51.12
2018-09-13T16:28:25.622Z,51.82
2018-09-13T16:30:54.046Z,52.23
2018-09-13T16:33:22.438Z,52.34
2018-09-13T16:35:53.209Z,52.77
2018-09-13T16:38:29.955Z,52.29
2018-09-13T16:41:04.530Z,53.15
2018-09-13T16:46:08.528Z,53.47
2018-09-13T16:48:42.077Z,53.94
2018-09-13T16:51:10.506Z,53.38
2018-09-13T16:53:38.937Z,54.08
2018-09-13T16:56:07.713Z,53.65
2018-09-13T16:58:42.520Z,54.57
2018-09-13T17:01:10.949Z,54.14
2018-09-13T17:03:39.414Z,55.06
2018-09-13T17:06:07.899Z,55.22
2018-09-13T17:08:36.333Z,55.03
2018-09-13T17:11:04.802Z,56.00
2018-09-13T17:13:33.288Z,56.09
2018-09-13T17:16:01.713Z,56.38
2018-09-13T17:18:30.141Z,57.50
2018-09-13T17:20:58.673Z,57.09
2018-09-13T17:23:28.119Z,56.38
2018-09-13T17:25:56.631Z,57.15
2018-09-13T17:28:25.137Z,56.63
2018-09-13T17:30:53.610Z,58.09
2018-09-13T17:33:22.054Z,57.07
2018-09-13T17:35:50.450Z,56.60
2018-09-13T17:38:25.506Z,57.34
2018-09-13T17:40:53.917Z,56.79
2018-09-13T17:43:22.400Z,57.63
2018-09-13T17:45:50.926Z,57.53
2018-09-13T17:48:19.363Z,58.28
2018-09-13T17:50:47.758Z,57.83
2018-09-13T17:53:16.273Z,58.70
2018-09-13T17:55:44.693Z,58.37
2018-09-13T17:58:13.142Z,57.99
2018-09-13T18:00:41.546Z,58.95
2018-09-13T18:03:10.047Z,59.15
2018-09-13T18:05:41.357Z,58.21
2018-09-13T18:08:09.788Z,58.75
2018-09-13T18:10:38.218Z,59.03
2018-09-13T18:13:06.986Z,58.11
2018-09-13T18:15:35.382Z,58.61
2018-09-13T18:18:03.857Z,59.16
2018-09-13T18:20:32.344Z,59.13
2018-09-13T18:23:00.717Z,59.45
2018-09-13T18:25:29.204Z,59.54
2018-09-13T18:27:57.621Z,59.67
2018-09-13T18:30:26.635Z,60.10
2018-09-13T18:32:55.282Z,60.47
2018-09-13T18:35:23.733Z,60.39
2018-09-13T18:37:52.132Z,59.65
2018-09-13T18:40:20.565Z,59.86
2018-09-13T18:42:48.946Z,59.31
2018-09-13T18:45:17.508Z,59.84
2018-09-13T18:47:45.862Z,59.66
2018-09-13T18:50:14.287Z,59.66
2018-09-13T18:52:42.874Z,59.68
2018-09-13T18:55:11.329Z,59.86
2018-09-13T18:57:39.713Z,60.59
2018-09-13T19:00:08.196Z,60.46
2018-09-13T19:02:36.567Z,60.53
2018-09-13T19:05:05.220Z,61.00
2018-09-13T19:07:33.597Z,60.28
2018-09-13T19:10:02.050Z,62.02
2018-09-13T19:12:30.453Z,62.28
2018-09-13T19:14:58.850Z,63.68
2018-09-13T19:17:27.302Z,63.80
2018-09-13T19:19:55.677Z,64.77
2018-09-13T19:22:24.652Z,64.81
2018-09-13T19:24:53.326Z,65.21
2018-09-13T19:27:21.749Z,66.18
2018-09-13T19:29:50.389Z,66.70
2018-09-13T19:32:18.847Z,66.31
2018-09-13T19:34:47.264Z,66.68
2018-09-13T19:37:15.934Z,66.38
2018-09-13T19:39:44.474Z,66.22
2018-09-13T19:42:14.517Z,65.28
2018-09-13T19:44:42.994Z,65.20
2018-09-13T19:47:11.520Z,65.31
2018-09-13T19:49:39.929Z,64.85
2018-09-13T19:52:08.380Z,65.12
2018-09-13T19:54:36.973Z,65.40
2018-09-13T19:57:05.678Z,65.15
2018-09-13T19:59:34.061Z,63.95
2018-09-13T20:02:02.923Z,65.13
2018-09-13T20:04:31.444Z,65.56
2018-09-13T20:06:59.829Z,65.24
2018-09-13T20:09:28.293Z,65.60
2018-09-13T20:11:56.796Z,65.09
2018-09-13T20:14:25.710Z,65.90
2018-09-13T20:16:54.118Z,65.86
2018-09-13T20:19:22.622Z,65.99
2018-09-13T20:21:51.034Z,66.56
2018-09-13T20:24:19.477Z,67.02
2018-09-13T20:26:47.893Z,66.65
2018-09-13T20:29:16.326Z,66.65
2018-09-13T20:31:44.728Z,66.96
2018-09-13T20:34:13.206Z,65.97
2018-09-13T20:36:41.637Z,65.62
2018-09-13T20:39:11.140Z,66.52
2018-09-13T20:41:39.777Z,66.37
2018-09-13T20:44:08.730Z,65.78
2018-09-13T20:46:37.153Z,66.13
2018-09-13T20:49:05.905Z,66.02
2018-09-13T20:51:34.357Z,65.31
2018-09-13T20:54:02.916Z,65.74
2018-09-13T20:56:31.366Z,65.21
2018-09-13T20:59:00.400Z,65.55
2018-09-13T21:01:28.857Z,65.32
2018-09-13T21:03:57.280Z,65.44
2018-09-13T21:06:25.673Z,65.24
2018-09-13T21:08:54.066Z,65.12
2018-09-13T21:11:22.554Z,65.06
2018-09-13T21:13:51.001Z,64.47
2018-09-13T21:16:19.427Z,65.26
2018-09-13T21:18:49.427Z,65.00
2018-09-13T21:21:17.857Z,65.48
2018-09-13T21:23:46.266Z,64.96
2018-09-13T21:26:14.685Z,65.34
2018-09-13T21:28:43.097Z,64.92
2018-09-13T21:31:11.497Z,65.50
2018-09-13T21:33:39.886Z,65.49
2018-09-13T21:36:08.309Z,65.85
2018-09-13T21:38:36.722Z,66.11
2018-09-13T21:41:05.171Z,66.30
2018-09-13T21:43:33.599Z,66.69
2018-09-13T21:46:02.076Z,66.03
2018-09-13T21:48:30.455Z,65.99
2018-09-13T21:50:58.882Z,66.83
2018-09-13T21:53:27.283Z,66.00
2018-09-13T21:55:55.765Z,65.44
2018-09-13T21:58:24.161Z,65.96
2018-09-13T22:00:52.725Z,65.42
2018-09-13T22:03:21.151Z,65.47
2018-09-13T22:05:49.541Z,66.32
2018-09-13T22:08:17.982Z,65.32
2018-09-13T22:10:46.437Z,65.55
2018-09-13T22:13:14.857Z,64.90
2018-09-13T22:15:43.241Z,65.53
2018-09-13T22:18:11.685Z,65.03
2018-09-13T22:20:40.072Z,63.93
2018-09-13T22:23:08.490Z,63.71
2018-09-13T22:25:36.886Z,64.72
2018-09-13T22:28:05.358Z,64.62
2018-09-13T22:30:33.749Z,64.66
2018-09-13T22:33:02.914Z,65.33
2018-09-13T22:35:32.073Z,65.88
2018-09-13T22:38:00.497Z,65.17
2018-09-13T22:40:28.883Z,65.95
2018-09-13T22:42:57.341Z,65.46
2018-09-13T22:45:25.717Z,66.22
2018-09-13T22:47:54.146Z,65.84
2018-09-13T22:50:22.572Z,65.82
2018-09-13T22:52:50.987Z,66.28
2018-09-13T22:55:19.401Z,66.55
2018-09-13T22:57:47.814Z,66.00
2018-09-13T23:00:16.250Z,65.72
2018-09-13T23:02:47.765Z,65.37
2018-09-13T23:05:17.014Z,65.44
2018-09-13T23:07:45.601Z,65.60
2018-09-13T23:10:14.924Z,64.85
2018-09-13T23:12:43.415Z,64.89
2018-09-13T23:15:11.844Z,64.72
2018-09-13T23:17:40.297Z,64.24
2018-09-13T23:20:08.750Z,65.01
2018-09-13T23:22:37.149Z,64.70
2018-09-13T23:25:05.606Z,64.93
2018-09-13T23:27:33.989Z,64.89
2018-09-13T23:30:02.983Z,64.23
2018-09-13T23:32:31.363Z,63.98
2018-09-13T23:34:59.777Z,64.99
2018-09-13T23:37:28.168Z,65.24
2018-09-13T23:39:56.892Z,65.05
2018-09-13T23:42:24.972Z,65.81
2018-09-13T23:44:53.649Z,66.05
2018-09-13T23:47:22.026Z,66.01
2018-09-13T23:49:50.426Z,66.96
2018-09-13T23:52:18.858Z,67.35
2018-09-13T23:54:47.229Z,67.30
2018-09-13T23:57:15.658Z,67.55
2018-09-13T23:59:44.032Z,66.83
